EZY15MR EGKK-LEBL
Flight info
| Callsign | EZY15MR |
|---|---|
| Flight time | 1h 10m |
| Altitude | 35000 |
| Route | SFD Y47 BENBO UY47 DRAKE L151 SITET UN859 SOPIL DCT BALAN DCT EVPOK DCT NARAK DCT GAI DCT LOMRA DCT ROCAN DCT PUMAL |
| Aircraft | A320/M-SDE3FGHIRWY/LB1 |
Departure
| Time | 2026-05-04 20:19 |
|---|---|
| Airport | London Gatwick Airport (EGKK) |
Arrival
| Time | 2026-05-04 21:30 |
|---|---|
| Airport | Josep Tarradellas Barcelona-El Prat Airport (LEBL) |
| Time | Latitude | Longitude | Altitude | Speed | Heading |
|---|---|---|---|---|---|
| 2026-05-04 19:41 | 51.15583 | -0.17685 | 211 ft | 0 kts | 348° |
| 2026-05-04 20:04 | 51.15563 | -0.17678 | 215 ft | 3 kts | 343° |
| 2026-05-04 20:04 | 51.15544 | -0.17667 | 208 ft | 3 kts | 330° |
| 2026-05-04 20:04 | 51.15528 | -0.17648 | 217 ft | 3 kts | 301° |
| 2026-05-04 20:05 | 51.15524 | -0.17625 | 215 ft | 1 kts | 258° |
| 2026-05-04 20:05 | 51.15524 | -0.17624 | 215 ft | 0 kts | 258° |
| 2026-05-04 20:08 | 51.15524 | -0.17625 | 205 ft | 1 kts | 258° |
| 2026-05-04 20:08 | 51.15517 | -0.17670 | 215 ft | 4 kts | 257° |
| 2026-05-04 20:09 | 51.15511 | -0.17713 | 208 ft | 3 kts | 257° |
| 2026-05-04 20:09 | 51.15503 | -0.17775 | 211 ft | 8 kts | 257° |
| 2026-05-04 20:09 | 51.15490 | -0.17864 | 205 ft | 8 kts | 257° |
| 2026-05-04 20:09 | 51.15480 | -0.17939 | 208 ft | 6 kts | 257° |
| 2026-05-04 20:10 | 51.15470 | -0.18006 | 209 ft | 7 kts | 257° |
| 2026-05-04 20:10 | 51.15459 | -0.18083 | 210 ft | 9 kts | 257° |
| 2026-05-04 20:10 | 51.15440 | -0.18220 | 208 ft | 16 kts | 257° |
| 2026-05-04 20:10 | 51.15362 | -0.18276 | 205 ft | 13 kts | 172° |
| 2026-05-04 20:11 | 51.15281 | -0.18251 | 211 ft | 11 kts | 166° |
| 2026-05-04 20:11 | 51.15212 | -0.18239 | 205 ft | 9 kts | 191° |
| 2026-05-04 20:11 | 51.15187 | -0.18308 | 216 ft | 7 kts | 256° |
| 2026-05-04 20:11 | 51.15175 | -0.18400 | 209 ft | 9 kts | 258° |
| 2026-05-04 20:12 | 51.15163 | -0.18489 | 208 ft | 8 kts | 258° |
| 2026-05-04 20:12 | 51.15152 | -0.18572 | 205 ft | 10 kts | 258° |
| 2026-05-04 20:12 | 51.15130 | -0.18731 | 205 ft | 19 kts | 257° |
| 2026-05-04 20:12 | 51.15097 | -0.18967 | 210 ft | 23 kts | 259° |
| 2026-05-04 20:13 | 51.15065 | -0.19218 | 205 ft | 23 kts | 258° |
| 2026-05-04 20:13 | 51.15031 | -0.19469 | 208 ft | 24 kts | 258° |
| 2026-05-04 20:13 | 51.14994 | -0.19731 | 208 ft | 25 kts | 257° |
| 2026-05-04 20:13 | 51.14958 | -0.19991 | 205 ft | 23 kts | 257° |
| 2026-05-04 20:14 | 51.14925 | -0.20228 | 212 ft | 18 kts | 257° |
| 2026-05-04 20:14 | 51.14903 | -0.20392 | 204 ft | 13 kts | 258° |
| 2026-05-04 20:14 | 51.14897 | -0.20437 | 215 ft | 0 kts | 258° |
| 2026-05-04 20:15 | 51.14896 | -0.20444 | 214 ft | 4 kts | 258° |
| 2026-05-04 20:15 | 51.14882 | -0.20539 | 208 ft | 9 kts | 251° |
| 2026-05-04 20:15 | 51.14851 | -0.20621 | 208 ft | 10 kts | 228° |
| 2026-05-04 20:16 | 51.14798 | -0.20691 | 215 ft | 10 kts | 215° |
| 2026-05-04 20:16 | 51.14745 | -0.20730 | 209 ft | 7 kts | 186° |
| 2026-05-04 20:16 | 51.14697 | -0.20725 | 208 ft | 7 kts | 168° |
| 2026-05-04 20:16 | 51.14695 | -0.20724 | 209 ft | 0 kts | 168° |
| 2026-05-04 20:17 | 51.14684 | -0.20720 | 215 ft | 7 kts | 168° |
| 2026-05-04 20:17 | 51.14643 | -0.20702 | 208 ft | 4 kts | 161° |
| 2026-05-04 20:18 | 51.14609 | -0.20667 | 213 ft | 6 kts | 131° |
| 2026-05-04 20:18 | 51.14601 | -0.20602 | 209 ft | 8 kts | 87° |
| 2026-05-04 20:18 | 51.14608 | -0.20515 | 208 ft | 9 kts | 80° |
| 2026-05-04 20:18 | 51.14656 | -0.20152 | 217 ft | 69 kts | 76° |
| 2026-05-04 20:19 | 51.14811 | -0.19066 | 211 ft | 129 kts | 77° |
| 2026-05-04 20:19 | 51.15050 | -0.17417 | 311 ft | 167 kts | 77° |
| 2026-05-04 20:19 | 51.15276 | -0.15592 | 900 ft | 170 kts | 79° |
| 2026-05-04 20:19 | 51.15486 | -0.13720 | 1629 ft | 172 kts | 79° |
| 2026-05-04 20:20 | 51.15665 | -0.11843 | 2329 ft | 171 kts | 81° |
| 2026-05-04 20:20 | 51.15803 | -0.09960 | 2975 ft | 173 kts | 83° |
| 2026-05-04 20:20 | 51.15877 | -0.08685 | 3371 ft | 176 kts | 84° |
| 2026-05-04 20:20 | 51.15681 | -0.06688 | 3702 ft | 198 kts | 118° |
| 2026-05-04 20:21 | 51.14567 | -0.05238 | 3948 ft | 226 kts | 159° |
| 2026-05-04 20:21 | 51.12962 | -0.04537 | 4320 ft | 251 kts | 166° |
| 2026-05-04 20:21 | 51.08731 | -0.03144 | 5780 ft | 276 kts | 166° |
| 2026-05-04 20:22 | 51.07474 | -0.02644 | 5930 ft | 275 kts | 164° |
| 2026-05-04 20:22 | 51.05634 | -0.01818 | 5997 ft | 275 kts | 162° |
| 2026-05-04 20:22 | 51.03805 | -0.00943 | 6007 ft | 274 kts | 162° |
| 2026-05-04 20:22 | 51.02002 | -0.00068 | 6008 ft | 275 kts | 162° |
| 2026-05-04 20:23 | 51.00150 | 0.00833 | 6005 ft | 275 kts | 162° |
| 2026-05-04 20:23 | 50.98316 | 0.01720 | 6006 ft | 275 kts | 163° |
| 2026-05-04 20:23 | 50.96477 | 0.02600 | 6007 ft | 276 kts | 162° |
| 2026-05-04 20:23 | 50.94637 | 0.03476 | 6004 ft | 277 kts | 162° |
| 2026-05-04 20:24 | 50.92814 | 0.04339 | 6004 ft | 276 kts | 163° |
| 2026-05-04 20:24 | 50.90914 | 0.04935 | 6007 ft | 275 kts | 179° |
| 2026-05-04 20:24 | 50.89017 | 0.04852 | 6006 ft | 276 kts | 182° |
| 2026-05-04 20:24 | 50.87093 | 0.04742 | 6005 ft | 278 kts | 181° |
| 2026-05-04 20:25 | 50.85130 | 0.04621 | 6643 ft | 282 kts | 182° |
| 2026-05-04 20:25 | 50.83171 | 0.04496 | 7636 ft | 281 kts | 182° |
| 2026-05-04 20:25 | 50.81205 | 0.04370 | 8538 ft | 283 kts | 182° |
| 2026-05-04 20:25 | 50.79229 | 0.04245 | 9413 ft | 286 kts | 182° |
| 2026-05-04 20:26 | 50.77226 | 0.04118 | 10234 ft | 291 kts | 181° |
| 2026-05-04 20:26 | 50.75119 | 0.03988 | 10524 ft | 315 kts | 181° |
| 2026-05-04 20:26 | 50.72846 | 0.03852 | 10758 ft | 338 kts | 181° |
| 2026-05-04 20:26 | 50.70457 | 0.03709 | 11297 ft | 348 kts | 181° |
| 2026-05-04 20:27 | 50.68018 | 0.03559 | 12010 ft | 353 kts | 181° |
| 2026-05-04 20:27 | 50.65551 | 0.03402 | 12745 ft | 357 kts | 181° |
| 2026-05-04 20:27 | 50.63050 | 0.03239 | 13470 ft | 362 kts | 181° |
| 2026-05-04 20:27 | 50.60518 | 0.03078 | 14145 ft | 366 kts | 181° |
| 2026-05-04 20:28 | 50.57955 | 0.02921 | 14809 ft | 369 kts | 181° |
| 2026-05-04 20:28 | 50.55377 | 0.02763 | 15476 ft | 372 kts | 181° |
| 2026-05-04 20:28 | 50.52779 | 0.02607 | 16141 ft | 375 kts | 181° |
| 2026-05-04 20:28 | 50.50162 | 0.02469 | 16793 ft | 378 kts | 179° |
| 2026-05-04 20:29 | 50.47550 | 0.02954 | 17434 ft | 380 kts | 168° |
| 2026-05-04 20:29 | 50.44949 | 0.03754 | 18097 ft | 383 kts | 167° |
| 2026-05-04 20:29 | 50.42325 | 0.04583 | 18692 ft | 385 kts | 167° |
| 2026-05-04 20:29 | 50.39692 | 0.05427 | 19306 ft | 387 kts | 167° |
| 2026-05-04 20:30 | 50.37048 | 0.06275 | 19920 ft | 389 kts | 167° |
| 2026-05-04 20:30 | 50.34393 | 0.07126 | 20537 ft | 391 kts | 168° |
| 2026-05-04 20:30 | 50.31716 | 0.07982 | 21097 ft | 393 kts | 168° |
| 2026-05-04 20:30 | 50.29030 | 0.08836 | 21664 ft | 395 kts | 168° |
| 2026-05-04 20:31 | 50.26327 | 0.09691 | 22225 ft | 397 kts | 168° |
| 2026-05-04 20:31 | 50.23640 | 0.10538 | 22757 ft | 399 kts | 168° |
| 2026-05-04 20:31 | 50.20910 | 0.11399 | 23277 ft | 401 kts | 168° |
| 2026-05-04 20:31 | 50.18129 | 0.12274 | 23761 ft | 404 kts | 168° |
| 2026-05-04 20:32 | 50.15388 | 0.13135 | 24143 ft | 408 kts | 168° |
| 2026-05-04 20:32 | 50.12603 | 0.14009 | 24555 ft | 410 kts | 169° |
| 2026-05-04 20:32 | 50.09801 | 0.14888 | 24973 ft | 411 kts | 169° |
| 2026-05-04 20:32 | 50.06990 | 0.15771 | 25390 ft | 413 kts | 169° |
| 2026-05-04 20:33 | 50.04168 | 0.16658 | 25801 ft | 415 kts | 169° |
| 2026-05-04 20:33 | 50.01335 | 0.17543 | 26207 ft | 416 kts | 169° |
| 2026-05-04 20:33 | 49.98489 | 0.18429 | 26598 ft | 418 kts | 169° |
| 2026-05-04 20:33 | 49.95633 | 0.19321 | 26986 ft | 419 kts | 169° |
| 2026-05-04 20:34 | 49.92765 | 0.20218 | 27367 ft | 421 kts | 169° |
| 2026-05-04 20:34 | 49.89871 | 0.21120 | 27736 ft | 422 kts | 169° |
| 2026-05-04 20:34 | 49.87005 | 0.22012 | 28090 ft | 424 kts | 169° |
| 2026-05-04 20:34 | 49.84105 | 0.22915 | 28439 ft | 425 kts | 169° |
| 2026-05-04 20:35 | 49.81200 | 0.23817 | 28778 ft | 427 kts | 169° |
| 2026-05-04 20:35 | 49.78287 | 0.24720 | 29099 ft | 428 kts | 170° |
| 2026-05-04 20:35 | 49.75356 | 0.25627 | 29410 ft | 429 kts | 170° |
| 2026-05-04 20:35 | 49.72504 | 0.26509 | 29712 ft | 430 kts | 170° |
| 2026-05-04 20:36 | 49.69570 | 0.27414 | 30086 ft | 429 kts | 170° |
| 2026-05-04 20:36 | 49.66654 | 0.28312 | 30468 ft | 427 kts | 170° |
| 2026-05-04 20:36 | 49.63757 | 0.29205 | 30838 ft | 425 kts | 170° |
| 2026-05-04 20:36 | 49.60862 | 0.30097 | 31202 ft | 423 kts | 170° |
| 2026-05-04 20:37 | 49.57981 | 0.30983 | 31572 ft | 420 kts | 170° |
| 2026-05-04 20:37 | 49.55121 | 0.31861 | 31947 ft | 419 kts | 171° |
| 2026-05-04 20:37 | 49.52269 | 0.32736 | 32313 ft | 416 kts | 171° |
| 2026-05-04 20:37 | 49.49441 | 0.33604 | 32747 ft | 413 kts | 171° |
| 2026-05-04 20:38 | 49.46625 | 0.34463 | 32959 ft | 411 kts | 171° |
| 2026-05-04 20:38 | 49.43831 | 0.35310 | 32999 ft | 410 kts | 171° |
| 2026-05-04 20:38 | 49.41031 | 0.36159 | 33249 ft | 409 kts | 171° |
| 2026-05-04 20:38 | 49.38244 | 0.37010 | 33631 ft | 407 kts | 171° |
| 2026-05-04 20:39 | 49.35471 | 0.37860 | 33999 ft | 405 kts | 171° |
| 2026-05-04 20:39 | 49.32710 | 0.38707 | 34276 ft | 405 kts | 171° |
| 2026-05-04 20:39 | 49.29946 | 0.39551 | 34485 ft | 406 kts | 171° |
| 2026-05-04 20:39 | 49.27170 | 0.40392 | 34720 ft | 406 kts | 171° |
| 2026-05-04 20:40 | 49.24391 | 0.41230 | 34910 ft | 408 kts | 171° |
| 2026-05-04 20:40 | 49.21590 | 0.42074 | 34959 ft | 411 kts | 171° |
| 2026-05-04 20:40 | 49.15980 | 0.43767 | 34964 ft | 412 kts | 171° |
| 2026-05-04 20:41 | 49.10340 | 0.45469 | 34963 ft | 413 kts | 171° |
| 2026-05-04 20:41 | 49.04914 | 0.46921 | 34957 ft | 412 kts | 172° |
| 2026-05-04 20:42 | 48.99300 | 0.48679 | 34963 ft | 412 kts | 171° |
| 2026-05-04 20:42 | 48.93690 | 0.50462 | 34964 ft | 412 kts | 171° |
| 2026-05-04 20:43 | 48.88111 | 0.52152 | 34964 ft | 0 kts | 172° |
| 2026-05-04 20:43 | 48.85436 | 0.52790 | 34970 ft | 412 kts | 173° |
| 2026-05-04 20:43 | 48.82586 | 0.53594 | 34957 ft | 412 kts | 171° |
| 2026-05-04 20:44 | 48.77011 | 0.55348 | 34957 ft | 412 kts | 171° |
| 2026-05-04 20:44 | 48.71399 | 0.57120 | 34952 ft | 412 kts | 171° |
| 2026-05-04 20:45 | 48.65790 | 0.58794 | 34952 ft | 411 kts | 172° |
| 2026-05-04 20:45 | 48.60160 | 0.60429 | 34959 ft | 411 kts | 172° |
| 2026-05-04 20:46 | 48.54542 | 0.62069 | 34959 ft | 411 kts | 171° |
| 2026-05-04 20:46 | 48.48934 | 0.63725 | 34961 ft | 411 kts | 171° |
| 2026-05-04 20:47 | 48.43319 | 0.65378 | 34953 ft | 411 kts | 171° |
| 2026-05-04 20:47 | 48.37717 | 0.67025 | 34957 ft | 410 kts | 171° |
| 2026-05-04 20:48 | 48.32116 | 0.68655 | 34957 ft | 409 kts | 171° |
| 2026-05-04 20:48 | 48.26558 | 0.70263 | 34956 ft | 409 kts | 171° |
| 2026-05-04 20:49 | 48.20905 | 0.71909 | 34940 ft | 419 kts | 171° |
| 2026-05-04 20:49 | 48.15160 | 0.73579 | 34943 ft | 421 kts | 171° |
| 2026-05-04 20:50 | 48.09407 | 0.75247 | 34936 ft | 421 kts | 171° |
| 2026-05-04 20:50 | 48.03646 | 0.76906 | 34936 ft | 421 kts | 171° |
| 2026-05-04 20:51 | 47.97890 | 0.78563 | 34937 ft | 421 kts | 171° |
| 2026-05-04 20:51 | 47.92130 | 0.80227 | 34940 ft | 422 kts | 171° |
| 2026-05-04 20:52 | 47.86366 | 0.81885 | 35017 ft | 423 kts | 171° |
| 2026-05-04 20:52 | 47.80593 | 0.83536 | 34946 ft | 422 kts | 171° |
| 2026-05-04 20:53 | 47.74838 | 0.85178 | 34943 ft | 421 kts | 172° |
| 2026-05-04 20:53 | 47.69080 | 0.86817 | 34948 ft | 421 kts | 172° |
| 2026-05-04 20:54 | 47.63322 | 0.88456 | 34949 ft | 421 kts | 172° |
| 2026-05-04 20:54 | 47.57601 | 0.90076 | 34945 ft | 421 kts | 172° |
| 2026-05-04 20:55 | 47.51841 | 0.91704 | 34957 ft | 421 kts | 172° |
| 2026-05-04 20:55 | 47.46090 | 0.93267 | 34956 ft | 421 kts | 173° |
| 2026-05-04 20:56 | 47.38406 | 0.95007 | 34959 ft | 421 kts | 174° |
| 2026-05-04 20:56 | 47.15290 | 1.00272 | 34952 ft | 420 kts | 173° |
| 2026-05-04 20:57 | 46.92205 | 1.05523 | 34948 ft | 419 kts | 173° |
| 2026-05-04 20:57 | 46.69154 | 1.10730 | 34940 ft | 418 kts | 173° |
| 2026-05-04 20:58 | 46.46174 | 1.15872 | 34940 ft | 418 kts | 173° |
| 2026-05-04 20:58 | 46.23229 | 1.20965 | 34916 ft | 417 kts | 174° |
| 2026-05-04 20:59 | 46.00242 | 1.26018 | 34946 ft | 417 kts | 174° |
| 2026-05-04 20:59 | 45.77237 | 1.31037 | 34950 ft | 417 kts | 174° |
| 2026-05-04 21:00 | 45.54255 | 1.36028 | 34939 ft | 418 kts | 173° |
| 2026-05-04 21:00 | 45.31256 | 1.40955 | 34951 ft | 418 kts | 174° |
| 2026-05-04 21:01 | 45.08325 | 1.45843 | 34948 ft | 419 kts | 173° |
| 2026-05-04 21:01 | 44.85244 | 1.50714 | 34963 ft | 420 kts | 174° |
| 2026-05-04 21:02 | 44.62162 | 1.55547 | 34972 ft | 418 kts | 174° |
| 2026-05-04 21:02 | 44.39248 | 1.60319 | 34955 ft | 418 kts | 174° |
| 2026-05-04 21:03 | 44.16156 | 1.65079 | 34957 ft | 419 kts | 174° |
| 2026-05-04 21:03 | 43.93079 | 1.69797 | 34959 ft | 420 kts | 174° |
| 2026-05-04 21:04 | 43.69894 | 1.74509 | 34961 ft | 422 kts | 174° |
| 2026-05-04 21:04 | 43.46491 | 1.79216 | 34973 ft | 426 kts | 175° |
| 2026-05-04 21:05 | 43.22967 | 1.83907 | 34978 ft | 429 kts | 175° |
| 2026-05-04 21:05 | 42.99179 | 1.88613 | 34934 ft | 433 kts | 176° |
| 2026-05-04 21:06 | 42.84132 | 1.91588 | 34985 ft | 437 kts | 176° |
| 2026-05-04 21:06 | 42.78104 | 1.92772 | 34112 ft | 436 kts | 176° |
| 2026-05-04 21:07 | 42.75173 | 1.93358 | 33704 ft | 417 kts | 176° |
| 2026-05-04 21:07 | 42.72343 | 1.93927 | 33434 ft | 406 kts | 176° |
| 2026-05-04 21:07 | 42.69517 | 1.94483 | 32026 ft | 417 kts | 175° |
| 2026-05-04 21:07 | 42.66608 | 1.95042 | 30170 ft | 428 kts | 174° |
| 2026-05-04 21:08 | 42.63639 | 1.95610 | 28490 ft | 431 kts | 174° |
| 2026-05-04 21:08 | 42.60719 | 1.96179 | 27885 ft | 411 kts | 174° |
| 2026-05-04 21:08 | 42.57951 | 1.96722 | 27508 ft | 398 kts | 174° |
| 2026-05-04 21:08 | 42.55211 | 1.97257 | 26921 ft | 396 kts | 174° |
| 2026-05-04 21:09 | 42.52494 | 1.97783 | 26337 ft | 393 kts | 174° |
| 2026-05-04 21:09 | 42.49796 | 1.98303 | 25758 ft | 391 kts | 174° |
| 2026-05-04 21:09 | 42.47105 | 1.98826 | 25180 ft | 390 kts | 174° |
| 2026-05-04 21:09 | 42.44429 | 1.99348 | 24612 ft | 388 kts | 174° |
| 2026-05-04 21:10 | 42.41759 | 1.99866 | 24049 ft | 387 kts | 174° |
| 2026-05-04 21:10 | 42.39100 | 2.00379 | 23587 ft | 383 kts | 174° |
| 2026-05-04 21:10 | 42.36481 | 2.00883 | 23498 ft | 379 kts | 175° |
| 2026-05-04 21:10 | 42.33856 | 2.01310 | 22887 ft | 381 kts | 176° |
| 2026-05-04 21:11 | 42.31238 | 2.01641 | 22453 ft | 375 kts | 178° |
| 2026-05-04 21:11 | 42.28665 | 2.01920 | 21884 ft | 374 kts | 178° |
| 2026-05-04 21:11 | 42.26091 | 2.02187 | 21468 ft | 369 kts | 178° |
| 2026-05-04 21:11 | 42.23536 | 2.02460 | 20955 ft | 367 kts | 178° |
| 2026-05-04 21:12 | 42.21002 | 2.02744 | 20444 ft | 365 kts | 177° |
| 2026-05-04 21:12 | 42.18477 | 2.03038 | 19961 ft | 362 kts | 177° |
| 2026-05-04 21:12 | 42.15982 | 2.03335 | 19499 ft | 359 kts | 178° |
| 2026-05-04 21:12 | 42.13512 | 2.03635 | 19040 ft | 356 kts | 177° |
| 2026-05-04 21:13 | 42.11042 | 2.03939 | 18580 ft | 354 kts | 177° |
| 2026-05-04 21:13 | 42.08600 | 2.04240 | 18102 ft | 351 kts | 177° |
| 2026-05-04 21:13 | 42.06169 | 2.04536 | 17591 ft | 349 kts | 177° |
| 2026-05-04 21:13 | 42.03757 | 2.04822 | 17064 ft | 347 kts | 178° |
| 2026-05-04 21:14 | 42.01361 | 2.05103 | 16563 ft | 345 kts | 178° |
| 2026-05-04 21:14 | 41.98973 | 2.05383 | 16071 ft | 343 kts | 178° |
| 2026-05-04 21:14 | 41.96601 | 2.05662 | 15576 ft | 342 kts | 178° |
| 2026-05-04 21:14 | 41.94238 | 2.05944 | 15135 ft | 339 kts | 178° |
| 2026-05-04 21:15 | 41.91898 | 2.06223 | 14558 ft | 339 kts | 175° |
| 2026-05-04 21:15 | 41.89519 | 2.06506 | 14030 ft | 342 kts | 178° |
| 2026-05-04 21:15 | 41.87181 | 2.06788 | 13771 ft | 334 kts | 178° |
| 2026-05-04 21:15 | 41.84878 | 2.07065 | 13328 ft | 330 kts | 178° |
| 2026-05-04 21:16 | 41.82596 | 2.07336 | 12813 ft | 329 kts | 178° |
| 2026-05-04 21:16 | 41.80332 | 2.07605 | 12522 ft | 324 kts | 178° |
| 2026-05-04 21:16 | 41.78099 | 2.07874 | 12243 ft | 322 kts | 178° |
| 2026-05-04 21:16 | 41.75872 | 2.08275 | 11911 ft | 325 kts | 168° |
| 2026-05-04 21:17 | 41.73820 | 2.09574 | 11431 ft | 332 kts | 147° |
| 2026-05-04 21:17 | 41.72238 | 2.11851 | 10948 ft | 339 kts | 127° |
| 2026-05-04 21:17 | 41.71019 | 2.14544 | 10494 ft | 337 kts | 125° |
| 2026-05-04 21:17 | 41.69843 | 2.17203 | 10030 ft | 324 kts | 124° |
| 2026-05-04 21:18 | 41.68727 | 2.19749 | 9551 ft | 311 kts | 125° |
| 2026-05-04 21:18 | 41.67661 | 2.22169 | 9102 ft | 299 kts | 124° |
| 2026-05-04 21:18 | 41.66609 | 2.24542 | 8709 ft | 287 kts | 125° |
| 2026-05-04 21:18 | 41.65607 | 2.26789 | 8322 ft | 276 kts | 125° |
| 2026-05-04 21:19 | 41.64643 | 2.28941 | 7952 ft | 265 kts | 125° |
| 2026-05-04 21:19 | 41.63712 | 2.31017 | 7565 ft | 256 kts | 125° |
| 2026-05-04 21:19 | 41.62827 | 2.32995 | 7198 ft | 245 kts | 125° |
| 2026-05-04 21:19 | 41.61967 | 2.34914 | 6825 ft | 236 kts | 125° |
| 2026-05-04 21:20 | 41.61129 | 2.36777 | 6468 ft | 233 kts | 125° |
| 2026-05-04 21:20 | 41.60291 | 2.38633 | 6107 ft | 234 kts | 126° |
| 2026-05-04 21:20 | 41.59448 | 2.40501 | 5757 ft | 235 kts | 125° |
| 2026-05-04 21:20 | 41.58608 | 2.42367 | 5427 ft | 235 kts | 125° |
| 2026-05-04 21:21 | 41.57629 | 2.44059 | 5098 ft | 226 kts | 146° |
| 2026-05-04 21:21 | 41.56292 | 2.45006 | 4881 ft | 213 kts | 171° |
| 2026-05-04 21:21 | 41.54861 | 2.45098 | 4656 ft | 203 kts | 195° |
| 2026-05-04 21:21 | 41.53572 | 2.44424 | 4422 ft | 199 kts | 213° |
| 2026-05-04 21:22 | 41.52322 | 2.43619 | 4196 ft | 201 kts | 202° |
| 2026-05-04 21:22 | 41.50996 | 2.43038 | 3969 ft | 200 kts | 201° |
| 2026-05-04 21:22 | 41.49689 | 2.42425 | 3744 ft | 197 kts | 211° |
| 2026-05-04 21:22 | 41.48533 | 2.41459 | 3533 ft | 196 kts | 215° |
| 2026-05-04 21:23 | 41.47387 | 2.40478 | 3356 ft | 195 kts | 215° |
| 2026-05-04 21:23 | 41.46246 | 2.39501 | 3182 ft | 195 kts | 214° |
| 2026-05-04 21:23 | 41.45102 | 2.38521 | 3024 ft | 194 kts | 214° |
| 2026-05-04 21:23 | 41.44000 | 2.37575 | 2858 ft | 183 kts | 215° |
| 2026-05-04 21:24 | 41.42969 | 2.36693 | 2677 ft | 175 kts | 214° |
| 2026-05-04 21:24 | 41.41954 | 2.35821 | 2498 ft | 173 kts | 214° |
| 2026-05-04 21:24 | 41.40944 | 2.34953 | 2370 ft | 173 kts | 215° |
| 2026-05-04 21:24 | 41.39936 | 2.34085 | 2302 ft | 172 kts | 214° |
| 2026-05-04 21:25 | 41.38938 | 2.33226 | 2299 ft | 170 kts | 215° |
| 2026-05-04 21:25 | 41.38068 | 2.32179 | 2300 ft | 170 kts | 234° |
| 2026-05-04 21:25 | 41.37515 | 2.30780 | 2309 ft | 172 kts | 245° |
| 2026-05-04 21:25 | 41.37027 | 2.29334 | 2304 ft | 171 kts | 245° |
| 2026-05-04 21:26 | 41.36533 | 2.27877 | 2308 ft | 175 kts | 246° |
| 2026-05-04 21:26 | 41.36030 | 2.26395 | 2308 ft | 177 kts | 246° |
| 2026-05-04 21:26 | 41.35522 | 2.24901 | 2282 ft | 176 kts | 247° |
| 2026-05-04 21:26 | 41.35030 | 2.23452 | 2122 ft | 167 kts | 246° |
| 2026-05-04 21:27 | 41.34558 | 2.22065 | 1923 ft | 162 kts | 247° |
| 2026-05-04 21:27 | 41.34094 | 2.20702 | 1731 ft | 162 kts | 247° |
| 2026-05-04 21:27 | 41.33629 | 2.19338 | 1503 ft | 161 kts | 246° |
| 2026-05-04 21:27 | 41.33168 | 2.17984 | 1291 ft | 162 kts | 245° |
| 2026-05-04 21:28 | 41.32697 | 2.16602 | 1071 ft | 164 kts | 245° |
| 2026-05-04 21:28 | 41.32246 | 2.15282 | 844 ft | 150 kts | 246° |
| 2026-05-04 21:28 | 41.31828 | 2.14055 | 653 ft | 144 kts | 245° |
| 2026-05-04 21:28 | 41.31424 | 2.12870 | 457 ft | 142 kts | 245° |
| 2026-05-04 21:29 | 41.31017 | 2.11660 | 226 ft | 143 kts | 246° |
| 2026-05-04 21:29 | 41.30616 | 2.10454 | 57 ft | 141 kts | 244° |
| 2026-05-04 21:29 | 41.30222 | 2.09324 | 18 ft | 119 kts | 244° |
| 2026-05-04 21:29 | 41.29950 | 2.08552 | 25 ft | 67 kts | 245° |
| 2026-05-04 21:30 | 41.29825 | 2.08198 | 20 ft | 18 kts | 246° |
| 2026-05-04 21:30 | 41.29783 | 2.08072 | 19 ft | 16 kts | 246° |
| 2026-05-04 21:30 | 41.29714 | 2.07944 | 16 ft | 18 kts | 220° |
| 2026-05-04 21:30 | 41.29606 | 2.07842 | 16 ft | 19 kts | 214° |
| 2026-05-04 21:31 | 41.29423 | 2.07563 | 17 ft | 21 kts | 246° |
| 2026-05-04 21:31 | 41.29361 | 2.07379 | 17 ft | 22 kts | 245° |
| 2026-05-04 21:31 | 41.29295 | 2.07190 | 17 ft | 23 kts | 246° |
| 2026-05-04 21:32 | 41.29252 | 2.07073 | 17 ft | 11 kts | 231° |
| 2026-05-04 21:32 | 41.29177 | 2.07074 | 17 ft | 11 kts | 159° |
| 2026-05-04 21:32 | 41.29146 | 2.07140 | 20 ft | 8 kts | 81° |
| 2026-05-04 21:32 | 41.29167 | 2.07205 | 19 ft | 7 kts | 64° |
| 2026-05-04 21:33 | 41.29187 | 2.07261 | 19 ft | 6 kts | 65° |
| 2026-05-04 21:33 | 41.29200 | 2.07300 | 19 ft | 0 kts | 65° |
| 2026-05-04 21:33 | 41.29202 | 2.07304 | 19 ft | 2 kts | 65° |
| 2026-05-04 21:34 | 41.29199 | 2.07334 | 19 ft | 3 kts | 125° |
| 2026-05-04 21:34 | 41.29187 | 2.07345 | 20 ft | 1 kts | 147° |
| 2026-05-04 21:34 | 41.29173 | 2.07355 | 19 ft | 3 kts | 154° |
| 2026-05-04 21:34 | 41.29156 | 2.07365 | 19 ft | 2 kts | 156° |
| 2026-05-04 21:35 | 41.29148 | 2.07370 | 19 ft | 0 kts | 156° |
| 2026-05-04 21:35 | 41.29147 | 2.07370 | 19 ft | 0 kts | 156° |